Time;durP1;ratioP1;P1;durP2;ratioP2;P2;SDS_P1;SDS_P2;PMS_P1;PMS_P2;Temp;Humidity;BMP_temperature;BMP_pressure;BME280_temperature;BME280_humidity;BME280_pressure;Samples;Min_cycle;Max_cycle;Signal;HPM_P1;HPM_P2
2023/05/07 00:02:20;;;;;;;6.93;6.00;;;;;;;13.77;100.00;101441.59;5037725;28;20029;-84
2023/05/07 00:04:46;;;;;;;7.55;5.90;;;;;;;13.80;100.00;101444.72;5037486;28;20512;-84
2023/05/07 00:07:11;;;;;;;7.37;5.87;;;;;;;13.83;100.00;101443.41;5037323;28;20120;-84
2023/05/07 00:09:37;;;;;;;6.43;5.50;;;;;;;13.82;100.00;101437.16;5036369;28;20028;-84
2023/05/07 00:12:02;;;;;;;6.77;5.50;;;;;;;13.85;100.00;101439.41;5055499;28;20487;-84
2023/05/07 00:14:28;;;;;;;8.05;5.47;;;;;;;13.85;100.00;101430.41;5021480;28;20091;-84
2023/05/07 00:16:53;;;;;;;7.00;5.33;;;;;;;13.84;100.00;101437.75;5037504;28;20079;-84
2023/05/07 00:19:19;;;;;;;7.13;5.47;;;;;;;13.86;100.00;101429.34;5021454;28;20033;-84
2023/05/07 00:21:44;;;;;;;6.43;5.68;;;;;;;13.85;100.00;101431.25;5055298;28;20017;-84
2023/05/07 00:24:09;;;;;;;6.73;5.37;;;;;;;13.83;100.00;101427.06;5021162;28;20032;-84
2023/05/07 00:26:35;;;;;;;9.13;5.60;;;;;;;13.81;100.00;101427.28;5038084;28;20481;-84
2023/05/07 00:29:03;;;;;;;7.77;5.97;;;;;;;13.80;100.00;101425.63;5037440;28;20146;-84
2023/05/07 00:31:28;;;;;;;6.68;5.53;;;;;;;13.81;100.00;101427.28;5020079;28;20110;-84
2023/05/07 00:33:53;;;;;;;7.03;5.70;;;;;;;13.82;100.00;101433.59;5037162;28;20487;-84
2023/05/07 00:36:19;;;;;;;7.07;6.23;;;;;;;13.84;100.00;101426.00;5037241;28;20036;-84
2023/05/07 00:38:44;;;;;;;7.80;6.07;;;;;;;13.85;100.00;101424.97;5004557;28;20552;-84
2023/05/07 00:41:10;;;;;;;6.60;5.93;;;;;;;13.86;100.00;101421.16;5036841;28;20032;-84
2023/05/07 00:43:35;;;;;;;10.53;5.87;;;;;;;13.86;100.00;101421.16;5055109;28;20462;-84
2023/05/07 00:46:01;;;;;;;7.43;5.83;;;;;;;13.85;100.00;101417.59;5004910;28;20029;-84
2023/05/07 00:48:27;;;;;;;8.45;5.55;;;;;;;13.89;100.00;101407.06;5037693;28;20029;-84
2023/05/07 00:50:52;;;;;;;8.17;6.30;;;;;;;13.90;100.00;101410.66;5036544;28;20396;-84
2023/05/07 00:53:21;;;;;;;9.18;6.10;;;;;;;13.90;100.00;101413.38;5021086;28;20036;-84
2023/05/07 00:55:46;;;;;;;7.60;5.50;;;;;;;13.93;100.00;101411.03;5036403;28;20033;-84
2023/05/07 00:58:12;;;;;;;9.60;6.37;;;;;;;13.95;100.00;101408.91;5036926;28;20040;-85
2023/05/07 01:00:37;;;;;;;11.60;6.57;;;;;;;13.97;100.00;101405.97;5036347;28;20120;-84
2023/05/07 01:03:03;;;;;;;9.43;7.00;;;;;;;13.95;100.00;101414.38;5020483;28;20048;-84
2023/05/07 01:05:30;;;;;;;6.93;6.22;;;;;;;14.00;100.00;101416.44;5020267;28;20029;-84
2023/05/07 01:07:56;;;;;;;9.75;6.57;;;;;;;14.01;100.00;101413.47;5054507;28;20028;-85
2023/05/07 01:10:22;;;;;;;7.65;6.40;;;;;;;13.99;100.00;101409.28;5036826;28;20032;-84
2023/05/07 01:12:49;;;;;;;9.23;6.70;;;;;;;14.01;100.00;101410.75;5037220;28;20111;-84
2023/05/07 01:15:15;;;;;;;8.02;6.93;;;;;;;14.03;100.00;101407.78;5036492;28;20028;-83
2023/05/07 01:17:42;;;;;;;9.03;7.47;;;;;;;14.02;100.00;101414.28;5036375;28;20043;-83
2023/05/07 01:20:10;;;;;;;8.88;6.72;;;;;;;14.03;100.00;101402.34;5035954;28;20036;-84
2023/05/07 01:22:37;;;;;;;8.95;6.97;;;;;;;14.01;100.00;101405.28;5036301;28;20499;-84
2023/05/07 01:25:04;;;;;;;8.30;7.35;;;;;;;13.99;100.00;101398.38;5036478;28;20037;-85
2023/05/07 01:27:29;;;;;;;8.10;6.93;;;;;;;13.98;100.00;101391.25;5053817;28;20056;-84
2023/05/07 01:29:58;;;;;;;11.80;7.43;;;;;;;13.95;100.00;101391.69;5019725;28;20466;-84
2023/05/07 01:32:51;;;;;;;10.65;7.78;;;;;;;13.93;100.00;101382.91;5004849;28;20033;-84
2023/05/07 01:35:24;;;;;;;11.30;7.80;;;;;;;13.86;100.00;101377.50;5029783;28;20041;-84
2023/05/07 01:37:50;;;;;;;10.40;8.10;;;;;;;13.82;100.00;101377.13;5036268;28;20033;-83
2023/05/07 01:40:16;;;;;;;11.05;8.68;;;;;;;13.80;100.00;101383.88;5036251;28;20029;-84
2023/05/07 01:42:43;;;;;;;12.15;9.10;;;;;;;13.80;100.00;101387.44;5036187;28;20037;-84
2023/05/07 01:45:09;;;;;;;10.83;9.30;;;;;;;13.80;100.00;101381.13;5035701;28;20037;-84
2023/05/07 01:47:36;;;;;;;11.93;9.60;;;;;;;13.79;100.00;101383.03;5036133;28;20040;-84
2023/05/07 01:50:02;;;;;;;13.55;10.20;;;;;;;13.78;100.00;101381.38;5019396;28;20473;-84
2023/05/07 01:52:28;;;;;;;12.43;10.38;;;;;;;13.77;100.00;101384.31;5035842;28;20060;-84
2023/05/07 01:54:53;;;;;;;11.90;10.40;;;;;;;13.77;100.00;101379.69;5035840;28;20512;-84
2023/05/07 01:57:19;;;;;;;13.88;10.82;;;;;;;13.76;100.00;101379.91;5035525;28;20040;-84
2023/05/07 01:59:44;;;;;;;12.03;10.50;;;;;;;13.74;100.00;101376.59;5035802;28;20138;-84
2023/05/07 02:02:10;;;;;;;15.27;12.10;;;;;;;13.67;100.00;101374.75;5019382;28;20065;-84
2023/05/07 02:04:36;;;;;;;16.80;11.83;;;;;;;13.64;100.00;101372.47;5035948;28;20116;-83
2023/05/07 02:07:01;;;;;;;13.93;12.13;;;;;;;13.64;100.00;101366.16;5019683;28;20068;-84
2023/05/07 02:09:27;;;;;;;16.07;12.63;;;;;;;13.66;100.00;101370.34;5035247;28;20029;-84
2023/05/07 02:11:52;;;;;;;14.37;12.87;;;;;;;13.63;100.00;101373.53;5035405;28;20507;-84
2023/05/07 02:14:19;;;;;;;17.73;13.20;;;;;;;13.65;100.00;101371.41;5035576;28;20474;-84
2023/05/07 02:16:45;;;;;;;15.47;12.50;;;;;;;13.69;100.00;101366.34;5035676;28;20048;-84
2023/05/07 02:19:10;;;;;;;16.27;13.35;;;;;;;13.69;100.00;101372.63;5019418;28;20044;-84
2023/05/07 02:21:36;;;;;;;18.07;13.17;;;;;;;13.69;100.00;101372.63;5035589;28;20037;-84
2023/05/07 02:24:01;;;;;;;17.87;13.13;;;;;;;13.71;100.00;101377.03;5035563;28;20108;-84
2023/05/07 02:26:27;;;;;;;16.23;13.03;;;;;;;13.73;100.00;101383.09;5019039;28;20037;-84
2023/05/07 02:28:53;;;;;;;15.57;13.20;;;;;;;13.72;100.00;101376.81;5035469;28;20025;-84
2023/05/07 02:31:19;;;;;;;20.90;14.07;;;;;;;13.74;100.00;101384.75;5035296;28;20398;-84
2023/05/07 02:33:47;;;;;;;17.35;13.70;;;;;;;13.71;100.00;101380.59;5039345;28;20112;-84
2023/05/07 02:36:12;;;;;;;19.02;13.43;;;;;;;13.74;100.00;101382.88;5039225;28;20099;-84
2023/05/07 02:38:38;;;;;;;18.53;14.20;;;;;;;13.75;100.00;101386.44;5007368;28;20454;-83
2023/05/07 02:41:04;;;;;;;16.37;13.87;;;;;;;13.75;100.00;101379.09;5039197;28;20083;-83
2023/05/07 02:43:30;;;;;;;20.48;13.50;;;;;;;13.73;100.00;101378.50;5040068;28;20048;-84
2023/05/07 02:46:07;;;;;;;19.63;14.50;;;;;;;13.75;100.00;101381.81;5006989;28;20029;-84
2023/05/07 02:48:32;;;;;;;18.95;13.75;;;;;;;13.75;100.00;101386.44;5039446;28;20087;-84
2023/05/07 02:50:58;;;;;;;18.77;14.07;;;;;;;13.75;100.00;101390.00;5039023;28;20041;-85
2023/05/07 02:53:27;;;;;;;18.25;13.93;;;;;;;13.74;100.00;101387.50;5022605;28;20025;-84
2023/05/07 02:55:57;;;;;;;21.58;14.85;;;;;;;13.74;100.00;101390.22;5056966;28;20107;-84
2023/05/07 02:58:26;;;;;;;20.42;14.43;;;;;;;13.75;100.00;101390.00;5039216;28;20040;-84
2023/05/07 03:00:54;;;;;;;19.52;14.55;;;;;;;13.75;100.00;101384.53;5038962;28;20056;-84
2023/05/07 03:03:20;;;;;;;22.17;14.63;;;;;;;13.74;100.00;101385.59;5038977;28;20029;-84
2023/05/07 03:05:45;;;;;;;17.30;14.63;;;;;;;13.75;100.00;101375.53;5038877;28;20036;-84
2023/05/07 03:08:11;;;;;;;20.73;15.50;;;;;;;13.75;100.00;101373.63;5022649;28;20534;-84
2023/05/07 03:10:36;;;;;;;20.83;15.87;;;;;;;13.77;100.00;101378.88;5039430;28;20418;-84
2023/05/07 03:13:02;;;;;;;19.20;15.10;;;;;;;13.75;100.00;101368.19;5038790;28;20432;-84
2023/05/07 03:15:27;;;;;;;19.07;15.50;;;;;;;13.77;100.00;101378.88;5021904;28;20526;-84
2023/05/07 03:17:53;;;;;;;20.90;16.23;;;;;;;13.78;100.00;101380.53;5056259;28;20036;-84
2023/05/07 03:20:18;;;;;;;23.07;15.67;;;;;;;13.77;100.00;101374.22;5038884;28;20377;-84
2023/05/07 03:22:44;;;;;;;19.63;15.57;;;;;;;13.78;100.00;101377.81;5028646;28;20484;-84
2023/05/07 03:25:10;;;;;;;22.27;17.13;;;;;;;13.77;100.00;101374.22;5031999;28;20029;-84
2023/05/07 03:27:35;;;;;;;20.87;16.43;;;;;;;13.77;100.00;101374.22;5038241;28;20275;-84
2023/05/07 03:30:01;;;;;;;22.40;16.13;;;;;;;13.76;100.00;101369.84;5037787;28;20120;-84
2023/05/07 03:32:26;;;;;;;24.07;17.30;;;;;;;13.76;100.00;101361.69;5056671;28;20037;-84
2023/05/07 03:34:52;;;;;;;31.67;18.00;;;;;;;13.75;100.00;101373.63;5038007;28;20033;-84
2023/05/07 03:37:17;;;;;;;25.60;19.03;;;;;;;13.75;100.00;101372.81;5021606;28;20021;-84
2023/05/07 03:39:43;;;;;;;24.02;17.83;;;;;;;13.75;100.00;101368.19;5022630;28;20078;-84
2023/05/07 03:42:08;;;;;;;27.60;19.17;;;;;;;13.76;100.00;101369.84;5021489;28;20461;-84
2023/05/07 03:44:36;;;;;;;26.83;18.80;;;;;;;13.77;100.00;101366.06;5021451;28;20055;-84
2023/05/07 03:47:01;;;;;;;25.90;18.83;;;;;;;13.78;100.00;101365.00;5038084;28;20029;-84
2023/05/07 03:49:27;;;;;;;23.88;18.33;;;;;;;13.77;100.00;101363.31;5037695;28;20033;-84
2023/05/07 03:51:52;;;;;;;24.77;18.97;;;;;;;13.79;100.00;101368.56;5037771;28;20135;-84
2023/05/07 03:54:18;;;;;;;25.03;17.90;;;;;;;13.80;100.00;101368.34;5038025;28;20171;-84
2023/05/07 03:56:43;;;;;;;23.95;17.58;;;;;;;13.80;100.00;101367.50;5005159;28;20385;-84
2023/05/07 03:59:09;;;;;;;26.87;18.90;;;;;;;13.80;100.00;101375.69;5037751;28;20032;-84
2023/05/07 04:01:34;;;;;;;23.80;18.40;;;;;;;13.80;100.00;101378.41;5037978;28;20029;-84
2023/05/07 04:03:59;;;;;;;23.00;19.57;;;;;;;13.79;100.00;101380.31;5037701;28;20035;-84
2023/05/07 04:06:25;;;;;;;25.48;19.50;;;;;;;13.78;100.00;101386.00;5038619;28;20381;-84
2023/05/07 04:08:50;;;;;;;25.27;18.73;;;;;;;13.80;100.00;101386.59;5021522;28;20374;-84
2023/05/07 04:11:16;;;;;;;23.10;18.40;;;;;;;13.81;100.00;101391.81;5037046;28;20056;-85
2023/05/07 04:13:41;;;;;;;26.27;18.67;;;;;;;13.80;100.00;101389.31;5021367;28;20036;-83
2023/05/07 04:16:07;;;;;;;26.30;20.20;;;;;;;13.81;100.00;101396.47;5021085;28;20033;-84
2023/05/07 04:18:33;;;;;;;26.47;19.27;;;;;;;13.82;100.00;101398.97;5037590;28;20329;-84
2023/05/07 04:20:58;;;;;;;27.53;19.60;;;;;;;13.84;100.00;101396.00;5055685;28;20041;-83
2023/05/07 04:23:24;;;;;;;25.67;19.00;;;;;;;13.84;100.00;101398.72;5021050;28;20275;-83
2023/05/07 04:25:50;;;;;;;24.53;18.97;;;;;;;13.85;100.00;101395.78;5037607;28;20029;-84
2023/05/07 04:28:15;;;;;;;25.45;19.38;;;;;;;13.88;100.00;101399.09;5037587;28;20048;-85
2023/05/07 04:30:41;;;;;;;26.63;19.93;;;;;;;13.89;100.00;101395.31;5037514;28;20448;-84
2023/05/07 04:33:06;;;;;;;28.15;20.30;;;;;;;13.93;100.00;101400.09;5004552;28;20547;-83
2023/05/07 04:35:32;;;;;;;29.57;20.03;;;;;;;13.95;100.00;101395.28;5037186;28;20025;-84
2023/05/07 04:37:57;;;;;;;28.75;21.33;;;;;;;13.97;100.00;101392.31;5037423;28;20037;-84
2023/05/07 04:40:23;;;;;;;29.87;20.63;;;;;;;13.98;100.00;101394.81;5037953;28;20124;-84
2023/05/07 04:42:48;;;;;;;28.83;21.03;;;;;;;14.02;100.00;101395.19;5037866;28;20410;-84
2023/05/07 04:45:14;;;;;;;27.13;21.63;;;;;;;14.01;100.00;101398.97;5020520;28;20029;-84
2023/05/07 04:47:40;;;;;;;25.40;20.25;;;;;;;14.06;100.00;101387.41;5055135;28;20017;-84
2023/05/07 04:50:08;;;;;;;30.80;21.23;;;;;;;14.04;100.00;101398.56;5020446;28;20128;-84
2023/05/07 04:52:34;;;;;;;28.20;20.17;;;;;;;14.01;100.00;101398.97;5037021;28;20040;-83
2023/05/07 04:55:00;;;;;;;25.70;21.00;;;;;;;13.99;100.00;101406.56;5036154;28;20029;-84
2023/05/07 04:57:26;;;;;;;24.85;19.95;;;;;;;14.06;100.00;101411.97;5036858;28;20033;-84
2023/05/07 04:59:52;;;;;;;29.20;21.13;;;;;;;14.10;100.00;101414.03;5020009;28;20488;-84
2023/05/07 05:02:17;;;;;;;27.65;20.63;;;;;;;14.17;100.00;101416.66;5036389;28;20033;-84
2023/05/07 05:04:42;;;;;;;29.23;20.87;;;;;;;14.23;100.00;101407.56;5019897;28;20040;-84
2023/05/07 05:07:08;;;;;;;27.37;21.43;;;;;;;14.31;100.00;101414.66;5020158;28;20136;-84
2023/05/07 05:09:33;;;;;;;27.15;20.08;;;;;;;14.34;100.00;101415.03;5036775;28;20150;-84
2023/05/07 05:11:59;;;;;;;26.00;19.97;;;;;;;14.43;100.00;101415.56;5054427;28;20384;-83
2023/05/07 05:14:25;;;;;;;24.77;20.33;;;;;;;14.48;100.00;101417.59;5037030;28;20033;-85
2023/05/07 05:16:50;;;;;;;26.08;19.63;;;;;;;14.58;100.00;101412.44;5036401;28;20428;-84
2023/05/07 05:19:18;;;;;;;24.37;19.87;;;;;;;14.72;100.00;101416.72;5053988;28;20033;-87
2023/05/07 05:21:46;;;;;;;24.17;20.00;;;;;;;14.83;100.00;101417.00;5036363;28;20029;-88
2023/05/07 05:24:13;;;;;;;24.83;19.30;;;;;;;14.93;100.00;101427.41;5036275;28;20065;-88
2023/05/07 05:27:02;;;;;;;25.73;19.10;;;;;;;15.04;100.00;101423.88;5035934;28;20480;-88
2023/05/07 05:29:31;;;;;;;25.20;20.23;;;;;;;15.11;100.00;101432.81;5019965;28;20117;-87
2023/05/07 05:31:57;;;;;;;23.23;20.08;;;;;;;15.20;100.00;101427.84;5019589;28;20135;-88
2023/05/07 05:34:27;;;;;;;26.07;20.13;;;;;;;15.26;100.00;101435.13;5036281;28;20457;-90
2023/05/07 05:36:53;;;;;;;27.90;20.25;;;;;;;15.32;100.00;101434.19;5036268;28;20025;-87
2023/05/07 05:39:23;;;;;;;25.67;20.40;;;;;;;15.41;100.00;101432.81;5036921;28;20028;-89
2023/05/07 05:41:53;;;;;;;25.43;21.03;;;;;;;15.48;100.00;101429.13;5019502;28;20778;-89
2023/05/07 05:44:21;;;;;;;25.50;20.52;;;;;;;15.56;100.00;101436.97;5036204;28;20029;-89
2023/05/07 05:46:47;;;;;;;25.70;20.60;;;;;;;15.59;100.00;101437.38;5035630;28;20037;-88
2023/05/07 05:49:12;;;;;;;24.10;19.63;;;;;;;15.65;100.00;101442.94;5020684;28;20106;-88
2023/05/07 05:51:38;;;;;;;23.95;18.63;;;;;;;15.70;100.00;101437.63;5035510;28;20040;-87
2023/05/07 05:54:04;;;;;;;22.57;18.90;;;;;;;15.73;100.00;101443.44;5035861;28;20458;-88
2023/05/07 05:56:30;;;;;;;23.30;18.25;;;;;;;15.78;100.00;101434.56;5036521;28;20055;-86
2023/05/07 05:58:55;;;;;;;24.23;18.53;;;;;;;15.87;100.00;101440.50;5035658;28;20021;-87
2023/05/07 06:01:21;;;;;;;23.43;18.63;;;;;;;15.94;100.00;101438.50;5036121;28;20029;-88
2023/05/07 06:03:46;;;;;;;23.98;17.95;;;;;;;16.02;100.00;101440.91;5035772;28;20025;-85
2023/05/07 06:06:11;;;;;;;25.43;18.00;;;;;;;16.09;100.00;101443.50;5019267;28;20033;-85
2023/05/07 06:08:37;;;;;;;22.67;17.33;;;;;;;16.18;100.00;101435.78;5054111;28;20029;-83
2023/05/07 06:11:03;;;;;;;20.70;17.60;;;;;;;16.25;100.00;101448.25;5053189;28;20076;-85
2023/05/07 06:13:28;;;;;;;19.38;17.30;;;;;;;16.33;100.00;101447.09;5018923;28;20040;-86
2023/05/07 06:15:53;;;;;;;22.00;17.50;;;;;;;16.38;100.00;101438.16;5036073;28;20378;-83
2023/05/07 06:18:19;;;;;;;22.03;16.20;;;;;;;16.46;100.00;101441.34;5002823;28;20171;-84
2023/05/07 06:20:44;;;;;;;21.00;16.83;;;;;;;16.53;100.00;101441.22;5036087;28;20474;-86
2023/05/07 06:23:09;;;;;;;21.13;17.05;;;;;;;16.59;100.00;101442.97;5019627;28;20025;-86
2023/05/07 06:25:35;;;;;;;18.20;16.00;;;;;;;16.66;100.00;101440.13;5018675;28;20485;-85
2023/05/07 06:28:00;;;;;;;19.20;15.97;;;;;;;16.82;100.00;101439.34;5019460;28;20048;-85
2023/05/07 06:30:26;;;;;;;19.43;16.30;;;;;;;16.91;100.00;101437.09;5002405;28;20473;-85
2023/05/07 06:32:52;;;;;;;20.13;16.20;;;;;;;17.04;100.00;101437.88;5036442;28;20021;-86
2023/05/07 06:35:17;;;;;;;18.57;16.13;;;;;;;17.17;100.00;101440.34;5035989;28;20519;-86
2023/05/07 06:37:45;;;;;;;18.85;15.73;;;;;;;17.28;100.00;101444.94;5035475;28;20443;-85
2023/05/07 06:40:10;;;;;;;16.47;14.23;;;;;;;17.35;100.00;101442.88;5035567;28;20036;-85
2023/05/07 06:42:37;;;;;;;17.75;14.65;;;;;;;17.48;100.00;101449.13;5018941;28;20349;-85
2023/05/07 06:45:03;;;;;;;18.63;14.48;;;;;;;17.61;100.00;101451.56;5035195;28;20033;-86
2023/05/07 06:47:28;;;;;;;15.83;14.00;;;;;;;17.72;100.00;101452.56;5001549;28;20034;-85
2023/05/07 06:49:53;;;;;;;17.33;14.45;;;;;;;17.77;100.00;101455.38;5018989;28;20043;-86
2023/05/07 06:52:19;;;;;;;18.23;14.27;;;;;;;17.78;100.00;101454.31;5053240;28;20372;-85
2023/05/07 06:54:44;;;;;;;17.80;14.37;;;;;;;17.81;100.00;101461.22;5035449;28;20469;-86
2023/05/07 06:57:10;;;;;;;17.67;13.43;;;;;;;17.79;99.71;101469.72;5018797;28;20389;-85
2023/05/07 06:59:35;;;;;;;18.75;13.68;;;;;;;17.73;99.48;101467.97;5053047;28;20472;-86
2023/05/07 07:02:01;;;;;;;16.50;13.17;;;;;;;17.69;99.59;101467.59;5035292;28;20121;-87
2023/05/07 07:04:26;;;;;;;16.40;13.47;;;;;;;17.70;99.26;101466.53;5035125;28;20037;-86
2023/05/07 07:06:53;;;;;;;14.50;12.53;;;;;;;17.65;98.77;101468.34;5018416;28;20036;-87
2023/05/07 07:09:19;;;;;;;16.00;12.98;;;;;;;17.64;98.83;101472.16;5035782;28;20120;-87
2023/05/07 07:11:44;;;;;;;19.23;12.13;;;;;;;17.64;98.82;101463.94;5018297;28;20178;-87
2023/05/07 07:14:10;;;;;;;17.52;12.93;;;;;;;17.67;98.50;101452.47;5019192;28;20044;-86
2023/05/07 07:16:35;;;;;;;16.63;13.20;;;;;;;17.71;98.41;101462.69;5002246;28;20040;-87
2023/05/07 07:19:01;;;;;;;17.00;12.90;;;;;;;17.83;97.94;101467.28;5022181;28;20465;-87
2023/05/07 07:21:26;;;;;;;16.30;12.90;;;;;;;17.96;97.49;101460.66;5038675;28;20063;-87
2023/05/07 07:23:51;;;;;;;15.50;13.05;;;;;;;18.03;96.60;101467.66;5056461;28;20040;-87
2023/05/07 07:26:18;;;;;;;17.23;12.90;;;;;;;18.12;95.87;101470.00;5038569;28;20123;-86
2023/05/07 07:28:45;;;;;;;16.63;12.82;;;;;;;18.19;95.14;101467.91;5038110;28;20033;-86
2023/05/07 07:31:10;;;;;;;14.47;12.10;;;;;;;18.30;94.33;101472.44;5037998;28;20122;-86
2023/05/07 07:33:36;;;;;;;15.88;12.35;;;;;;;18.47;94.20;101475.19;5038010;28;20025;-86
2023/05/07 07:36:07;;;;;;;14.47;11.87;;;;;;;18.54;93.79;101474.97;5038558;28;20036;-86
2023/05/07 07:38:34;;;;;;;17.65;12.27;;;;;;;18.66;92.91;101477.59;5038562;28;20056;-86
2023/05/07 07:41:00;;;;;;;13.13;11.73;;;;;;;18.80;92.39;101483.56;5038078;28;20055;-88
2023/05/07 07:43:25;;;;;;;14.98;12.50;;;;;;;18.95;91.43;101480.22;5021977;28;20140;-85
2023/05/07 07:45:51;;;;;;;19.37;12.37;;;;;;;19.07;90.79;101481.75;5038343;28;20053;-85
2023/05/07 07:48:16;;;;;;;16.00;12.50;;;;;;;19.19;89.83;101483.50;5021648;28;20033;-85
2023/05/07 07:50:42;;;;;;;15.03;12.43;;;;;;;19.36;88.80;101480.69;5038161;28;20063;-85
2023/05/07 07:53:07;;;;;;;15.30;12.13;;;;;;;19.50;88.22;101481.91;5038048;28;20320;-85
2023/05/07 07:55:38;;;;;;;14.77;12.37;;;;;;;19.69;87.81;101478.78;5021430;28;20037;-83
2023/05/07 07:58:03;;;;;;;17.42;12.00;;;;;;;19.84;86.65;101484.44;5037584;28;20025;-84
2023/05/07 08:00:29;;;;;;;16.30;11.00;;;;;;;19.94;86.29;101479.03;5021288;28;20041;-83
2023/05/07 08:02:54;;;;;;;16.77;12.33;;;;;;;20.03;84.44;101487.63;5037152;28;20349;-83
2023/05/07 08:05:20;;;;;;;17.60;11.43;;;;;;;20.11;83.70;101486.34;5021189;28;20303;-85
2023/05/07 08:07:46;;;;;;;13.43;10.50;;;;;;;20.14;83.19;101477.53;5021130;28;20037;-87
2023/05/07 08:10:11;;;;;;;15.93;11.52;;;;;;;20.21;83.15;101485.56;5004952;28;20029;-85
2023/05/07 08:12:37;;;;;;;12.27;10.97;;;;;;;20.37;83.49;101479.06;5055212;28;20029;-84
2023/05/07 08:15:02;;;;;;;15.63;11.50;;;;;;;20.53;82.42;101479.97;5038094;28;20017;-85
2023/05/07 08:17:28;;;;;;;13.25;10.98;;;;;;;20.85;81.66;101479.06;5020833;28;20029;-85
2023/05/07 08:19:53;;;;;;;11.43;10.17;;;;;;;21.16;79.10;101481.94;5021894;28;20377;-85
2023/05/07 08:22:19;;;;;;;12.57;11.27;;;;;;;21.48;78.46;101480.91;5037255;28;20096;-85
2023/05/07 08:24:44;;;;;;;13.43;10.83;;;;;;;21.70;76.18;101488.97;5055276;28;20461;-85
2023/05/07 08:27:10;;;;;;;13.60;10.57;;;;;;;21.87;75.47;101484.00;5005479;28;20033;-84
2023/05/07 08:29:35;;;;;;;11.97;10.77;;;;;;;22.17;74.73;101487.84;5003510;28;20036;-85
2023/05/07 08:32:01;;;;;;;13.13;11.27;;;;;;;22.28;73.51;101490.59;5037045;28;20064;-85
2023/05/07 08:34:26;;;;;;;12.57;11.27;;;;;;;22.42;73.83;101486.19;5021308;28;20091;-85
2023/05/07 08:36:51;;;;;;;14.75;12.20;;;;;;;22.48;73.10;101485.06;5037241;28;20066;-85
2023/05/07 08:39:17;;;;;;;16.20;11.60;;;;;;;22.57;72.29;101488.94;5020548;28;20128;-85
2023/05/07 08:41:46;;;;;;;15.47;11.90;;;;;;;22.43;72.35;101491.44;5004218;28;20041;-85
2023/05/07 08:44:13;;;;;;;13.73;11.75;;;;;;;22.38;72.53;101493.38;5037153;28;20049;-85
2023/05/07 08:46:40;;;;;;;13.82;11.52;;;;;;;22.47;71.93;101493.63;5036565;28;20120;-85
2023/05/07 08:49:08;;;;;;;16.47;11.33;;;;;;;22.36;71.76;101493.66;5037137;28;20090;-85
2023/05/07 08:51:35;;;;;;;15.10;12.00;;;;;;;22.53;71.06;101490.59;5036857;28;20029;-86
2023/05/07 08:54:01;;;;;;;19.30;12.07;;;;;;;22.71;70.87;101496.63;5020523;28;20083;-84
2023/05/07 08:56:29;;;;;;;13.25;11.85;;;;;;;22.72;70.97;101495.50;5054379;28;20521;-84
2023/05/07 08:58:58;;;;;;;15.93;11.88;;;;;;;22.86;70.45;101496.56;5020186;28;20157;-85
2023/05/07 09:01:24;;;;;;;13.83;12.37;;;;;;;23.05;69.89;101501.47;5036670;28;20132;-84
2023/05/07 09:03:51;;;;;;;15.35;12.27;;;;;;;23.29;68.35;101496.09;5054294;28;20028;-85
2023/05/07 09:06:17;;;;;;;21.65;12.95;;;;;;;23.42;68.06;101491.88;5036531;28;20287;-84
2023/05/07 09:08:51;;;;;;;14.93;12.70;;;;;;;23.59;68.30;101508.09;5036117;28;20397;-85
2023/05/07 09:11:22;;;;;;;19.17;15.63;;;;;;;23.54;67.55;101497.88;5054300;28;20383;-85
2023/05/07 09:13:48;;;;;;;16.08;12.43;;;;;;;23.59;66.62;101497.84;5020192;28;20037;-84
2023/05/07 09:16:14;;;;;;;14.65;12.40;;;;;;;23.82;66.39;101498.22;5036426;28;20112;-84
2023/05/07 09:18:42;;;;;;;18.55;12.52;;;;;;;23.85;66.91;101503.19;5036749;28;20044;-84
2023/05/07 09:21:10;;;;;;;15.57;13.05;;;;;;;24.06;65.99;101503.88;5036164;28;20041;-85
2023/05/07 09:23:35;;;;;;;17.67;12.63;;;;;;;24.07;64.81;101501.94;5036442;28;20040;-85
2023/05/07 09:26:01;;;;;;;17.17;12.20;;;;;;;24.27;63.75;101500.91;5036443;28;20358;-84
2023/05/07 09:28:27;;;;;;;12.67;11.43;;;;;;;24.42;63.03;101503.53;5036499;28;20637;-85
2023/05/07 09:30:52;;;;;;;13.20;11.80;;;;;;;24.53;63.21;101501.47;5013417;28;20060;-85
2023/05/07 09:33:21;;;;;;;12.93;11.50;;;;;;;24.62;61.42;101507.22;5000008;28;20084;-85
2023/05/07 09:35:51;;;;;;;14.32;12.32;;;;;;;24.46;62.23;101499.06;5016605;28;20115;-85
2023/05/07 09:38:21;;;;;;;13.43;12.02;;;;;;;24.45;62.54;101502.94;5016285;28;20038;-85
2023/05/07 09:40:47;;;;;;;14.77;12.37;;;;;;;24.64;62.41;101497.50;5015550;28;20505;-85
2023/05/07 09:43:13;;;;;;;14.70;13.20;;;;;;;24.79;62.05;101509.56;5032168;28;20029;-84
2023/05/07 09:45:39;;;;;;;15.23;11.80;;;;;;;24.72;60.57;101506.31;4999953;28;20394;-85
2023/05/07 09:48:07;;;;;;;13.23;11.83;;;;;;;24.85;60.12;101511.13;5016439;28;20045;-85
2023/05/07 09:50:39;;;;;;;15.45;13.75;;;;;;;24.69;62.47;101504.94;4999444;28;20036;-85
2023/05/07 09:53:05;;;;;;;17.92;12.95;;;;;;;24.47;62.50;101510.97;5015864;28;20092;-85
2023/05/07 09:55:31;;;;;;;14.45;12.50;;;;;;;24.17;62.94;101504.63;5016433;28;20044;-85
2023/05/07 09:57:58;;;;;;;18.67;12.93;;;;;;;24.21;63.66;101504.84;5033665;28;20037;-84
2023/05/07 10:00:27;;;;;;;13.95;12.55;;;;;;;24.30;63.16;101506.72;5015933;28;20029;-85
2023/05/07 10:02:55;;;;;;;16.42;13.75;;;;;;;24.25;63.03;101511.47;5015916;28;20045;-84
2023/05/07 10:05:25;;;;;;;14.30;12.95;;;;;;;24.34;62.33;101507.78;5031968;28;20108;-85
2023/05/07 10:07:50;;;;;;;14.70;13.10;;;;;;;24.44;61.41;101511.56;5000087;28;20117;-85
2023/05/07 10:10:17;;;;;;;14.65;12.07;;;;;;;24.77;61.26;101512.59;5015986;28;20460;-84
2023/05/07 10:12:46;;;;;;;15.35;12.52;;;;;;;24.85;60.69;101516.69;5016033;28;20091;-85
2023/05/07 10:15:12;;;;;;;15.68;12.55;;;;;;;25.03;59.18;101509.50;5016013;28;20056;-85
2023/05/07 10:17:39;;;;;;;12.73;11.43;;;;;;;25.16;59.68;101513.53;5032039;28;20436;-84
2023/05/07 10:20:06;;;;;;;13.40;12.00;;;;;;;25.47;57.97;101505.59;5015637;28;20064;-84
2023/05/07 10:22:38;;;;;;;13.70;12.15;;;;;;;25.80;58.32;101510.38;5033453;28;20064;-84
2023/05/07 10:25:16;;;;;;;14.55;11.27;;;;;;;26.37;55.71;101507.50;5032111;28;20040;-88
2023/05/07 10:27:44;;;;;;;12.40;11.10;;;;;;;26.84;53.60;101502.69;5032094;28;20532;-88
2023/05/07 10:30:13;;;;;;;13.13;10.80;;;;;;;27.24;52.87;101500.16;5014916;28;20029;-89
2023/05/07 10:32:43;;;;;;;13.73;10.93;;;;;;;27.46;51.33;101504.13;5034926;28;20512;-89
2023/05/07 10:35:20;;;;;;;11.57;10.38;;;;;;;27.87;52.20;101499.53;5036277;28;20037;-89
2023/05/07 10:37:46;;;;;;;12.35;10.82;;;;;;;27.88;49.79;101507.59;5035414;28;20071;-86
2023/05/07 10:40:13;;;;;;;11.70;10.52;;;;;;;27.98;48.88;101500.97;5035554;28;20067;-87
2023/05/07 10:42:39;;;;;;;11.90;10.50;;;;;;;28.21;48.77;101500.91;5035237;28;20124;-87
2023/05/07 10:45:22;;;;;;;12.75;10.60;;;;;;;28.37;50.95;101498.53;5053141;28;20116;-86
2023/05/07 10:48:10;;;;;;;13.25;10.80;;;;;;;28.40;51.00;101501.50;5052981;28;20115;-86
2023/05/07 10:50:45;;;;;;;11.67;10.13;;;;;;;28.35;49.45;101491.31;5035342;28;20033;-86
2023/05/07 10:53:19;;;;;;;13.18;10.02;;;;;;;28.23;49.78;101505.03;5037585;28;20453;-86
2023/05/07 10:55:49;;;;;;;15.15;10.75;;;;;;;28.31;49.13;101497.84;5038866;28;20472;-86
2023/05/07 10:58:36;;;;;;;11.80;10.55;;;;;;;28.49;49.56;101498.75;5038675;28;20033;-87
2023/05/07 11:01:02;;;;;;;12.20;11.00;;;;;;;28.32;46.94;101503.13;5039285;28;20051;-87
2023/05/07 11:03:35;;;;;;;10.43;9.33;;;;;;;28.38;47.67;101500.19;5038936;28;20461;-87
2023/05/07 11:06:18;;;;;;;11.45;9.57;;;;;;;28.68;48.57;101502.13;5039769;28;20087;-86